sensor_id;sensor_type;location;lat;lon;timestamp;P1;durP1;ratioP1;P2;durP2;ratioP2
49223;SDS011;35050;51.316;5.994;2023-06-10T00:02:15;5.03;;;3.80;;
49223;SDS011;35050;51.316;5.994;2023-06-10T00:04:42;4.88;;;3.92;;
49223;SDS011;35050;51.316;5.994;2023-06-10T00:07:07;5.28;;;3.90;;
49223;SDS011;35050;51.316;5.994;2023-06-10T00:09:36;4.35;;;3.38;;
49223;SDS011;35050;51.316;5.994;2023-06-10T00:12:06;4.22;;;3.40;;
49223;SDS011;35050;51.316;5.994;2023-06-10T00:14:36;3.57;;;3.27;;
49223;SDS011;35050;51.316;5.994;2023-06-10T00:17:04;3.95;;;3.55;;
49223;SDS011;35050;51.316;5.994;2023-06-10T00:19:30;3.95;;;3.40;;
49223;SDS011;35050;51.316;5.994;2023-06-10T00:21:57;3.38;;;3.08;;
49223;SDS011;35050;51.316;5.994;2023-06-10T00:24:22;4.65;;;3.25;;
49223;SDS011;35050;51.316;5.994;2023-06-10T00:26:48;3.65;;;3.00;;
49223;SDS011;35050;51.316;5.994;2023-06-10T00:29:14;3.55;;;3.25;;
49223;SDS011;35050;51.316;5.994;2023-06-10T00:31:40;3.30;;;3.00;;
49223;SDS011;35050;51.316;5.994;2023-06-10T00:34:06;3.70;;;3.00;;
49223;SDS011;35050;51.316;5.994;2023-06-10T00:36:32;4.18;;;3.55;;
49223;SDS011;35050;51.316;5.994;2023-06-10T00:38:58;5.25;;;3.38;;
49223;SDS011;35050;51.316;5.994;2023-06-10T00:41:24;3.85;;;3.45;;
49223;SDS011;35050;51.316;5.994;2023-06-10T00:43:53;3.50;;;3.08;;
49223;SDS011;35050;51.316;5.994;2023-06-10T00:46:19;4.68;;;3.28;;
49223;SDS011;35050;51.316;5.994;2023-06-10T00:48:45;3.75;;;3.00;;
49223;SDS011;35050;51.316;5.994;2023-06-10T00:51:11;3.63;;;2.97;;
49223;SDS011;35050;51.316;5.994;2023-06-10T00:53:39;3.67;;;2.60;;
49223;SDS011;35050;51.316;5.994;2023-06-10T00:56:06;4.57;;;3.10;;
49223;SDS011;35050;51.316;5.994;2023-06-10T00:58:32;3.17;;;2.92;;
49223;SDS011;35050;51.316;5.994;2023-06-10T01:00:58;3.45;;;2.70;;
49223;SDS011;35050;51.316;5.994;2023-06-10T01:03:24;3.20;;;2.90;;
49223;SDS011;35050;51.316;5.994;2023-06-10T01:08:45;2.80;;;2.60;;
49223;SDS011;35050;51.316;5.994;2023-06-10T01:11:25;2.97;;;2.67;;
49223;SDS011;35050;51.316;5.994;2023-06-10T01:13:59;3.15;;;2.60;;
49223;SDS011;35050;51.316;5.994;2023-06-10T01:16:25;3.22;;;2.92;;
49223;SDS011;35050;51.316;5.994;2023-06-10T01:18:51;3.10;;;2.80;;
49223;SDS011;35050;51.316;5.994;2023-06-10T01:21:21;3.28;;;2.72;;
49223;SDS011;35050;51.316;5.994;2023-06-10T01:23:49;3.15;;;2.85;;
49223;SDS011;35050;51.316;5.994;2023-06-10T01:26:17;2.83;;;2.58;;
49223;SDS011;35050;51.316;5.994;2023-06-10T01:28:51;2.60;;;2.40;;
49223;SDS011;35050;51.316;5.994;2023-06-10T01:31:43;2.80;;;2.60;;
49223;SDS011;35050;51.316;5.994;2023-06-10T01:34:13;5.15;;;2.53;;
49223;SDS011;35050;51.316;5.994;2023-06-10T01:36:41;3.47;;;2.40;;
49223;SDS011;35050;51.316;5.994;2023-06-10T01:39:13;2.88;;;2.67;;
49223;SDS011;35050;51.316;5.994;2023-06-10T01:41:41;2.67;;;2.47;;
49223;SDS011;35050;51.316;5.994;2023-06-10T01:44:07;2.70;;;2.50;;
49223;SDS011;35050;51.316;5.994;2023-06-10T01:46:34;3.15;;;2.85;;
49223;SDS011;35050;51.316;5.994;2023-06-10T01:49:00;2.53;;;2.33;;
49223;SDS011;35050;51.316;5.994;2023-06-10T01:51:25;3.05;;;2.40;;
49223;SDS011;35050;51.316;5.994;2023-06-10T01:53:51;4.35;;;2.53;;
49223;SDS011;35050;51.316;5.994;2023-06-10T01:56:17;3.05;;;2.65;;
49223;SDS011;35050;51.316;5.994;2023-06-10T01:58:44;3.30;;;3.00;;
49223;SDS011;35050;51.316;5.994;2023-06-10T02:01:11;2.80;;;2.58;;
49223;SDS011;35050;51.316;5.994;2023-06-10T02:03:36;2.63;;;2.42;;
49223;SDS011;35050;51.316;5.994;2023-06-10T02:06:02;3.03;;;2.78;;
49223;SDS011;35050;51.316;5.994;2023-06-10T02:08:28;3.22;;;2.92;;
49223;SDS011;35050;51.316;5.994;2023-06-10T02:10:54;3.05;;;2.75;;
49223;SDS011;35050;51.316;5.994;2023-06-10T02:13:19;2.67;;;2.47;;
49223;SDS011;35050;51.316;5.994;2023-06-10T02:15:45;2.80;;;2.60;;
49223;SDS011;35050;51.316;5.994;2023-06-10T02:18:11;2.92;;;2.70;;
49223;SDS011;35050;51.316;5.994;2023-06-10T02:20:40;2.55;;;2.25;;
49223;SDS011;35050;51.316;5.994;2023-06-10T02:23:06;2.75;;;2.45;;
49223;SDS011;35050;51.316;5.994;2023-06-10T02:25:31;4.07;;;2.78;;
49223;SDS011;35050;51.316;5.994;2023-06-10T02:27:57;2.72;;;2.28;;
49223;SDS011;35050;51.316;5.994;2023-06-10T02:30:22;3.15;;;2.85;;
49223;SDS011;35050;51.316;5.994;2023-06-10T02:32:48;3.10;;;2.80;;
49223;SDS011;35050;51.316;5.994;2023-06-10T02:35:15;3.28;;;2.97;;
49223;SDS011;35050;51.316;5.994;2023-06-10T02:37:42;3.38;;;2.38;;
49223;SDS011;35050;51.316;5.994;2023-06-10T02:40:08;2.92;;;2.72;;
49223;SDS011;35050;51.316;5.994;2023-06-10T02:42:35;2.70;;;2.50;;
49223;SDS011;35050;51.316;5.994;2023-06-10T02:45:01;3.45;;;2.60;;
49223;SDS011;35050;51.316;5.994;2023-06-10T02:47:27;3.10;;;2.80;;
49223;SDS011;35050;51.316;5.994;2023-06-10T02:49:52;3.25;;;2.80;;
49223;SDS011;35050;51.316;5.994;2023-06-10T02:52:18;3.35;;;2.60;;
49223;SDS011;35050;51.316;5.994;2023-06-10T02:54:43;3.00;;;2.70;;
49223;SDS011;35050;51.316;5.994;2023-06-10T02:57:10;2.97;;;2.67;;
49223;SDS011;35050;51.316;5.994;2023-06-10T02:59:36;2.75;;;2.55;;
49223;SDS011;35050;51.316;5.994;2023-06-10T03:02:01;3.10;;;2.60;;
49223;SDS011;35050;51.316;5.994;2023-06-10T03:04:27;3.30;;;3.00;;
49223;SDS011;35050;51.316;5.994;2023-06-10T03:06:54;2.80;;;2.60;;
49223;SDS011;35050;51.316;5.994;2023-06-10T03:09:20;2.80;;;2.60;;
49223;SDS011;35050;51.316;5.994;2023-06-10T03:11:46;4.70;;;3.00;;
49223;SDS011;35050;51.316;5.994;2023-06-10T03:14:11;3.13;;;2.83;;
49223;SDS011;35050;51.316;5.994;2023-06-10T03:16:37;3.30;;;3.00;;
49223;SDS011;35050;51.316;5.994;2023-06-10T03:19:06;3.05;;;2.75;;
49223;SDS011;35050;51.316;5.994;2023-06-10T03:21:32;2.88;;;2.53;;
49223;SDS011;35050;51.316;5.994;2023-06-10T03:23:59;3.60;;;2.92;;
49223;SDS011;35050;51.316;5.994;2023-06-10T03:26:26;2.75;;;2.53;;
49223;SDS011;35050;51.316;5.994;2023-06-10T03:28:52;3.50;;;2.83;;
49223;SDS011;35050;51.316;5.994;2023-06-10T03:31:18;3.38;;;3.08;;
49223;SDS011;35050;51.316;5.994;2023-06-10T03:33:44;3.53;;;2.78;;
49223;SDS011;35050;51.316;5.994;2023-06-10T03:36:09;3.22;;;2.83;;
49223;SDS011;35050;51.316;5.994;2023-06-10T03:38:35;2.78;;;2.58;;
49223;SDS011;35050;51.316;5.994;2023-06-10T03:41:01;3.13;;;2.83;;
49223;SDS011;35050;51.316;5.994;2023-06-10T03:43:27;4.22;;;3.05;;
49223;SDS011;35050;51.316;5.994;2023-06-10T03:45:53;3.28;;;2.97;;
49223;SDS011;35050;51.316;5.994;2023-06-10T03:48:19;3.60;;;3.30;;
49223;SDS011;35050;51.316;5.994;2023-06-10T03:50:45;3.80;;;3.03;;
49223;SDS011;35050;51.316;5.994;2023-06-10T03:53:12;3.20;;;2.78;;
49223;SDS011;35050;51.316;5.994;2023-06-10T03:55:38;3.17;;;2.88;;
49223;SDS011;35050;51.316;5.994;2023-06-10T03:58:03;4.43;;;3.45;;
49223;SDS011;35050;51.316;5.994;2023-06-10T04:00:29;4.35;;;2.97;;
49223;SDS011;35050;51.316;5.994;2023-06-10T04:02:55;6.40;;;3.78;;
49223;SDS011;35050;51.316;5.994;2023-06-10T04:05:22;3.70;;;3.40;;
49223;SDS011;35050;51.316;5.994;2023-06-10T04:07:48;3.25;;;2.95;;
49223;SDS011;35050;51.316;5.994;2023-06-10T04:10:14;3.45;;;3.15;;
49223;SDS011;35050;51.316;5.994;2023-06-10T04:12:40;5.13;;;3.28;;
49223;SDS011;35050;51.316;5.994;2023-06-10T04:15:07;4.20;;;3.63;;
49223;SDS011;35050;51.316;5.994;2023-06-10T04:17:33;3.40;;;3.10;;
49223;SDS011;35050;51.316;5.994;2023-06-10T04:19:59;3.63;;;3.33;;
49223;SDS011;35050;51.316;5.994;2023-06-10T04:22:25;3.90;;;3.30;;
49223;SDS011;35050;51.316;5.994;2023-06-10T04:24:51;3.53;;;3.20;;
49223;SDS011;35050;51.316;5.994;2023-06-10T04:27:17;3.40;;;3.10;;
49223;SDS011;35050;51.316;5.994;2023-06-10T04:29:43;3.50;;;3.20;;
49223;SDS011;35050;51.316;5.994;2023-06-10T04:32:09;4.10;;;3.28;;
49223;SDS011;35050;51.316;5.994;2023-06-10T04:34:34;3.47;;;3.17;;
49223;SDS011;35050;51.316;5.994;2023-06-10T04:37:04;3.45;;;3.15;;
49223;SDS011;35050;51.316;5.994;2023-06-10T04:39:30;3.55;;;3.25;;
49223;SDS011;35050;51.316;5.994;2023-06-10T04:41:55;3.60;;;3.30;;
49223;SDS011;35050;51.316;5.994;2023-06-10T04:44:21;3.70;;;3.28;;
49223;SDS011;35050;51.316;5.994;2023-06-10T04:46:47;4.35;;;3.30;;
49223;SDS011;35050;51.316;5.994;2023-06-10T04:49:13;3.97;;;3.47;;
49223;SDS011;35050;51.316;5.994;2023-06-10T04:51:39;4.75;;;3.40;;
49223;SDS011;35050;51.316;5.994;2023-06-10T04:54:05;4.75;;;3.50;;
49223;SDS011;35050;51.316;5.994;2023-06-10T04:56:30;5.15;;;2.92;;
49223;SDS011;35050;51.316;5.994;2023-06-10T04:58:56;3.90;;;3.30;;
49223;SDS011;35050;51.316;5.994;2023-06-10T05:01:22;4.03;;;2.78;;
49223;SDS011;35050;51.316;5.994;2023-06-10T05:03:48;3.60;;;3.20;;
49223;SDS011;35050;51.316;5.994;2023-06-10T05:06:14;4.38;;;3.50;;
49223;SDS011;35050;51.316;5.994;2023-06-10T05:08:40;3.75;;;3.22;;
49223;SDS011;35050;51.316;5.994;2023-06-10T05:11:06;4.50;;;4.10;;
49223;SDS011;35050;51.316;5.994;2023-06-10T05:13:31;4.57;;;4.18;;
49223;SDS011;35050;51.316;5.994;2023-06-10T05:15:57;3.95;;;3.55;;
49223;SDS011;35050;51.316;5.994;2023-06-10T05:18:23;4.47;;;3.97;;
49223;SDS011;35050;51.316;5.994;2023-06-10T05:20:49;3.67;;;3.38;;
49223;SDS011;35050;51.316;5.994;2023-06-10T05:23:14;4.90;;;4.40;;
49223;SDS011;35050;51.316;5.994;2023-06-10T05:25:40;5.55;;;3.80;;
49223;SDS011;35050;51.316;5.994;2023-06-10T05:28:06;4.57;;;3.92;;
49223;SDS011;35050;51.316;5.994;2023-06-10T05:30:35;5.30;;;4.10;;
49223;SDS011;35050;51.316;5.994;2023-06-10T05:33:01;4.35;;;3.95;;
49223;SDS011;35050;51.316;5.994;2023-06-10T05:35:26;4.40;;;3.75;;
49223;SDS011;35050;51.316;5.994;2023-06-10T05:37:52;4.30;;;3.90;;
49223;SDS011;35050;51.316;5.994;2023-06-10T05:40:18;4.55;;;3.80;;
49223;SDS011;35050;51.316;5.994;2023-06-10T05:42:43;4.60;;;4.20;;
49223;SDS011;35050;51.316;5.994;2023-06-10T05:45:09;6.40;;;4.00;;
49223;SDS011;35050;51.316;5.994;2023-06-10T05:47:35;4.43;;;4.03;;
49223;SDS011;35050;51.316;5.994;2023-06-10T05:50:01;3.97;;;3.60;;
49223;SDS011;35050;51.316;5.994;2023-06-10T05:52:27;4.28;;;3.88;;
49223;SDS011;35050;51.316;5.994;2023-06-10T05:54:53;6.13;;;4.82;;
49223;SDS011;35050;51.316;5.994;2023-06-10T05:57:19;5.30;;;4.68;;
49223;SDS011;35050;51.316;5.994;2023-06-10T05:59:45;7.30;;;4.57;;
49223;SDS011;35050;51.316;5.994;2023-06-10T06:02:10;4.68;;;4.28;;
49223;SDS011;35050;51.316;5.994;2023-06-10T06:04:36;4.38;;;3.97;;
49223;SDS011;35050;51.316;5.994;2023-06-10T06:07:02;5.88;;;4.55;;
49223;SDS011;35050;51.316;5.994;2023-06-10T06:09:28;4.63;;;4.13;;
49223;SDS011;35050;51.316;5.994;2023-06-10T06:11:53;4.80;;;4.30;;
49223;SDS011;35050;51.316;5.994;2023-06-10T06:14:19;5.55;;;4.78;;
49223;SDS011;35050;51.316;5.994;2023-06-10T06:16:45;6.03;;;4.45;;
49223;SDS011;35050;51.316;5.994;2023-06-10T06:19:10;4.35;;;3.95;;
49223;SDS011;35050;51.316;5.994;2023-06-10T06:21:36;4.38;;;3.75;;
49223;SDS011;35050;51.316;5.994;2023-06-10T06:24:02;6.38;;;4.10;;
49223;SDS011;35050;51.316;5.994;2023-06-10T06:26:27;4.70;;;3.92;;
49223;SDS011;35050;51.316;5.994;2023-06-10T06:28:53;5.65;;;4.13;;
49223;SDS011;35050;51.316;5.994;2023-06-10T06:31:18;7.25;;;4.50;;
49223;SDS011;35050;51.316;5.994;2023-06-10T06:33:44;5.85;;;4.35;;
49223;SDS011;35050;51.316;5.994;2023-06-10T06:36:10;5.30;;;4.55;;
49223;SDS011;35050;51.316;5.994;2023-06-10T06:38:35;6.72;;;4.90;;
49223;SDS011;35050;51.316;5.994;2023-06-10T06:41:01;5.25;;;4.57;;
49223;SDS011;35050;51.316;5.994;2023-06-10T06:43:28;5.07;;;4.55;;
49223;SDS011;35050;51.316;5.994;2023-06-10T06:45:56;4.95;;;4.32;;
49223;SDS011;35050;51.316;5.994;2023-06-10T06:48:22;5.90;;;4.75;;
49223;SDS011;35050;51.316;5.994;2023-06-10T06:50:48;4.22;;;3.83;;
49223;SDS011;35050;51.316;5.994;2023-06-10T06:53:14;4.38;;;3.97;;
49223;SDS011;35050;51.316;5.994;2023-06-10T06:55:39;4.72;;;3.88;;
49223;SDS011;35050;51.316;5.994;2023-06-10T06:58:05;4.95;;;4.53;;
49223;SDS011;35050;51.316;5.994;2023-06-10T07:00:31;5.60;;;4.28;;
49223;SDS011;35050;51.316;5.994;2023-06-10T07:02:57;7.20;;;4.68;;
49223;SDS011;35050;51.316;5.994;2023-06-10T07:05:24;5.85;;;4.57;;
49223;SDS011;35050;51.316;5.994;2023-06-10T07:07:55;4.93;;;4.30;;
49223;SDS011;35050;51.316;5.994;2023-06-10T07:10:24;5.82;;;4.90;;
49223;SDS011;35050;51.316;5.994;2023-06-10T07:12:50;7.03;;;4.78;;
49223;SDS011;35050;51.316;5.994;2023-06-10T07:15:16;7.55;;;4.50;;
49223;SDS011;35050;51.316;5.994;2023-06-10T07:17:43;7.55;;;5.13;;
49223;SDS011;35050;51.316;5.994;2023-06-10T07:20:09;9.35;;;4.60;;
49223;SDS011;35050;51.316;5.994;2023-06-10T07:22:35;6.18;;;4.47;;
49223;SDS011;35050;51.316;5.994;2023-06-10T07:25:00;4.43;;;3.92;;
49223;SDS011;35050;51.316;5.994;2023-06-10T07:27:26;5.70;;;4.60;;
49223;SDS011;35050;51.316;5.994;2023-06-10T07:29:51;5.35;;;4.60;;
49223;SDS011;35050;51.316;5.994;2023-06-10T07:32:17;6.13;;;4.22;;
49223;SDS011;35050;51.316;5.994;2023-06-10T07:34:47;4.32;;;3.92;;
49223;SDS011;35050;51.316;5.994;2023-06-10T07:37:12;4.47;;;4.07;;
49223;SDS011;35050;51.316;5.994;2023-06-10T07:39:38;5.20;;;4.13;;
49223;SDS011;35050;51.316;5.994;2023-06-10T07:42:04;4.45;;;3.75;;
49223;SDS011;35050;51.316;5.994;2023-06-10T07:44:30;4.55;;;3.75;;
49223;SDS011;35050;51.316;5.994;2023-06-10T07:46:55;5.43;;;4.57;;
49223;SDS011;35050;51.316;5.994;2023-06-10T07:49:22;5.88;;;4.13;;
49223;SDS011;35050;51.316;5.994;2023-06-10T07:51:49;4.80;;;4.13;;
49223;SDS011;35050;51.316;5.994;2023-06-10T07:54:15;5.13;;;4.25;;
49223;SDS011;35050;51.316;5.994;2023-06-10T07:56:41;5.00;;;4.50;;
49223;SDS011;35050;51.316;5.994;2023-06-10T07:59:06;5.03;;;4.28;;
49223;SDS011;35050;51.316;5.994;2023-06-10T08:01:32;4.38;;;3.97;;
49223;SDS011;35050;51.316;5.994;2023-06-10T08:03:58;4.07;;;3.67;;
49223;SDS011;35050;51.316;5.994;2023-06-10T08:06:23;5.53;;;3.88;;
49223;SDS011;35050;51.316;5.994;2023-06-10T08:08:49;4.55;;;3.70;;
49223;SDS011;35050;51.316;5.994;2023-06-10T08:11:15;3.67;;;3.38;;
49223;SDS011;35050;51.316;5.994;2023-06-10T08:13:40;5.40;;;3.63;;
49223;SDS011;35050;51.316;5.994;2023-06-10T08:16:06;3.70;;;3.38;;
49223;SDS011;35050;51.316;5.994;2023-06-10T08:18:32;3.97;;;3.60;;
49223;SDS011;35050;51.316;5.994;2023-06-10T08:20:58;3.97;;;3.58;;
49223;SDS011;35050;51.316;5.994;2023-06-10T08:23:24;3.75;;;3.33;;
49223;SDS011;35050;51.316;5.994;2023-06-10T08:25:50;4.28;;;3.75;;
49223;SDS011;35050;51.316;5.994;2023-06-10T08:28:16;5.68;;;4.00;;
49223;SDS011;35050;51.316;5.994;2023-06-10T08:30:41;4.22;;;3.60;;
49223;SDS011;35050;51.316;5.994;2023-06-10T08:33:07;3.88;;;3.20;;
49223;SDS011;35050;51.316;5.994;2023-06-10T08:35:33;3.65;;;3.10;;
49223;SDS011;35050;51.316;5.994;2023-06-10T08:37:59;5.00;;;3.13;;
49223;SDS011;35050;51.316;5.994;2023-06-10T08:40:25;3.88;;;3.47;;
49223;SDS011;35050;51.316;5.994;2023-06-10T08:45:21;5.53;;;3.67;;
49223;SDS011;35050;51.316;5.994;2023-06-10T08:47:49;4.57;;;4.07;;
49223;SDS011;35050;51.316;5.994;2023-06-10T08:50:18;6.10;;;3.60;;
49223;SDS011;35050;51.316;5.994;2023-06-10T08:52:44;3.50;;;3.20;;
49223;SDS011;35050;51.316;5.994;2023-06-10T08:55:23;4.10;;;3.22;;
49223;SDS011;35050;51.316;5.994;2023-06-10T08:57:54;4.53;;;3.50;;
49223;SDS011;35050;51.316;5.994;2023-06-10T09:00:20;4.32;;;3.33;;
49223;SDS011;35050;51.316;5.994;2023-06-10T09:02:47;3.70;;;3.40;;
49223;SDS011;35050;51.316;5.994;2023-06-10T09:05:13;4.60;;;3.40;;
49223;SDS011;35050;51.316;5.994;2023-06-10T09:07:40;4.03;;;3.38;;
49223;SDS011;35050;51.316;5.994;2023-06-10T09:10:06;3.53;;;3.22;;
49223;SDS011;35050;51.316;5.994;2023-06-10T09:12:32;3.45;;;3.15;;
49223;SDS011;35050;51.316;5.994;2023-06-10T09:14:59;3.50;;;3.20;;
49223;SDS011;35050;51.316;5.994;2023-06-10T09:17:26;6.57;;;3.80;;
49223;SDS011;35050;51.316;5.994;2023-06-10T09:19:52;4.40;;;3.72;;
49223;SDS011;35050;51.316;5.994;2023-06-10T09:22:20;5.18;;;3.80;;
49223;SDS011;35050;51.316;5.994;2023-06-10T09:24:51;4.63;;;4.03;;
49223;SDS011;35050;51.316;5.994;2023-06-10T09:27:29;6.22;;;4.40;;
49223;SDS011;35050;51.316;5.994;2023-06-10T09:29:56;4.20;;;3.78;;
49223;SDS011;35050;51.316;5.994;2023-06-10T09:32:22;4.45;;;3.55;;
49223;SDS011;35050;51.316;5.994;2023-06-10T09:34:49;3.88;;;3.30;;
49223;SDS011;35050;51.316;5.994;2023-06-10T09:37:21;3.97;;;3.13;;
49223;SDS011;35050;51.316;5.994;2023-06-10T09:40:04;3.78;;;3.33;;
49223;SDS011;35050;51.316;5.994;2023-06-10T09:42:34;6.38;;;3.72;;
49223;SDS011;35050;51.316;5.994;2023-06-10T09:45:05;3.55;;;3.25;;
49223;SDS011;35050;51.316;5.994;2023-06-10T09:47:32;3.80;;;3.08;;
49223;SDS011;35050;51.316;5.994;2023-06-10T09:49:57;5.85;;;3.42;;
49223;SDS011;35050;51.316;5.994;2023-06-10T09:52:24;4.45;;;3.22;;
49223;SDS011;35050;51.316;5.994;2023-06-10T09:54:51;3.80;;;3.50;;
49223;SDS011;35050;51.316;5.994;2023-06-10T09:57:17;4.00;;;3.60;;
49223;SDS011;35050;51.316;5.994;2023-06-10T09:59:44;4.13;;;3.22;;
49223;SDS011;35050;51.316;5.994;2023-06-10T10:02:14;4.70;;;3.83;;
49223;SDS011;35050;51.316;5.994;2023-06-10T10:04:41;4.05;;;3.03;;
49223;SDS011;35050;51.316;5.994;2023-06-10T10:07:07;6.25;;;3.50;;
49223;SDS011;35050;51.316;5.994;2023-06-10T10:09:35;5.00;;;3.67;;
49223;SDS011;35050;51.316;5.994;2023-06-10T10:12:01;5.93;;;2.92;;
49223;SDS011;35050;51.316;5.994;2023-06-10T10:14:28;4.85;;;3.80;;
49223;SDS011;35050;51.316;5.994;2023-06-10T10:16:57;4.07;;;3.63;;
49223;SDS011;35050;51.316;5.994;2023-06-10T10:19:25;5.03;;;3.40;;
49223;SDS011;35050;51.316;5.994;2023-06-10T10:21:56;4.55;;;3.33;;
49223;SDS011;35050;51.316;5.994;2023-06-10T10:24:36;6.10;;;3.85;;
49223;SDS011;35050;51.316;5.994;2023-06-10T10:27:10;4.45;;;3.67;;
49223;SDS011;35050;51.316;5.994;2023-06-10T10:29:42;4.13;;;3.70;;
49223;SDS011;35050;51.316;5.994;2023-06-10T10:32:12;4.35;;;3.53;;
49223;SDS011;35050;51.316;5.994;2023-06-10T10:37:48;4.70;;;3.30;;
49223;SDS011;35050;51.316;5.994;2023-06-10T10:40:14;3.70;;;3.20;;
49223;SDS011;35050;51.316;5.994;2023-06-10T10:42:41;4.88;;;3.15;;
49223;SDS011;35050;51.316;5.994;2023-06-10T10:45:07;5.80;;;3.67;;
49223;SDS011;35050;51.316;5.994;2023-06-10T10:47:34;3.95;;;3.35;;
49223;SDS011;35050;51.316;5.994;2023-06-10T10:50:00;3.75;;;3.22;;
49223;SDS011;35050;51.316;5.994;2023-06-10T10:52:28;4.25;;;3.85;;
49223;SDS011;35050;51.316;5.994;2023-06-10T10:55:22;3.53;;;3.22;;
49223;SDS011;35050;51.316;5.994;2023-06-10T10:57:58;4.50;;;3.30;;
49223;SDS011;35050;51.316;5.994;2023-06-10T11:00:34;4.22;;;3.13;;
49223;SDS011;35050;51.316;5.994;2023-06-10T11:05:46;4.73;;;3.20;;
49223;SDS011;35050;51.316;5.994;2023-06-10T11:08:14;4.43;;;3.35;;
49223;SDS011;35050;51.316;5.994;2023-06-10T11:11:00;3.33;;;3.03;;
49223;SDS011;35050;51.316;5.994;2023-06-10T11:13:26;4.47;;;3.40;;
49223;SDS011;35050;51.316;5.994;2023-06-10T11:15:56;4.32;;;3.08;;
49223;SDS011;35050;51.316;5.994;2023-06-10T11:18:26;3.63;;;3.25;;
49223;SDS011;35050;51.316;5.994;2023-06-10T11:21:00;5.32;;;3.28;;
49223;SDS011;35050;51.316;5.994;2023-06-10T11:23:31;3.50;;;3.20;;
49223;SDS011;35050;51.316;5.994;2023-06-10T11:31:24;3.17;;;2.88;;
49223;SDS011;35050;51.316;5.994;2023-06-10T11:34:07;4.90;;;3.25;;
49223;SDS011;35050;51.316;5.994;2023-06-10T11:36:34;3.55;;;3.25;;
49223;SDS011;35050;51.316;5.994;2023-06-10T11:39:03;3.50;;;3.20;;
49223;SDS011;35050;51.316;5.994;2023-06-10T11:41:31;4.68;;;3.53;;
49223;SDS011;35050;51.316;5.994;2023-06-10T11:44:01;4.38;;;3.50;;
49223;SDS011;35050;51.316;5.994;2023-06-10T11:46:32;3.55;;;3.25;;
49223;SDS011;35050;51.316;5.994;2023-06-10T11:48:58;5.00;;;3.35;;
49223;SDS011;35050;51.316;5.994;2023-06-10T11:51:25;3.88;;;3.20;;
49223;SDS011;35050;51.316;5.994;2023-06-10T11:53:52;3.20;;;3.00;;
49223;SDS011;35050;51.316;5.994;2023-06-10T11:56:22;3.75;;;3.10;;
49223;SDS011;35050;51.316;5.994;2023-06-10T11:58:52;3.75;;;3.35;;
49223;SDS011;35050;51.316;5.994;2023-06-10T12:01:23;3.20;;;2.83;;
49223;SDS011;35050;51.316;5.994;2023-06-10T12:03:59;4.68;;;3.08;;
49223;SDS011;35050;51.316;5.994;2023-06-10T12:06:42;3.80;;;3.40;;
49223;SDS011;35050;51.316;5.994;2023-06-10T12:09:20;5.57;;;3.28;;
49223;SDS011;35050;51.316;5.994;2023-06-10T12:11:51;3.83;;;3.20;;
49223;SDS011;35050;51.316;5.994;2023-06-10T12:17:22;3.63;;;2.90;;
49223;SDS011;35050;51.316;5.994;2023-06-10T12:19:57;4.60;;;3.22;;
49223;SDS011;35050;51.316;5.994;2023-06-10T12:22:23;3.65;;;3.35;;
49223;SDS011;35050;51.316;5.994;2023-06-10T12:24:59;3.75;;;3.00;;
49223;SDS011;35050;51.316;5.994;2023-06-10T12:27:29;3.40;;;3.10;;
49223;SDS011;35050;51.316;5.994;2023-06-10T12:29:57;3.92;;;3.20;;
49223;SDS011;35050;51.316;5.994;2023-06-10T12:35:12;3.67;;;2.90;;
49223;SDS011;35050;51.316;5.994;2023-06-10T12:40:31;5.78;;;3.00;;
49223;SDS011;35050;51.316;5.994;2023-06-10T12:42:57;3.50;;;3.20;;
49223;SDS011;35050;51.316;5.994;2023-06-10T12:45:33;3.30;;;3.00;;
49223;SDS011;35050;51.316;5.994;2023-06-10T12:50:42;4.82;;;2.90;;
49223;SDS011;35050;51.316;5.994;2023-06-10T12:53:09;3.97;;;2.97;;
49223;SDS011;35050;51.316;5.994;2023-06-10T12:55:36;4.05;;;2.90;;
49223;SDS011;35050;51.316;5.994;2023-06-10T12:58:02;3.40;;;2.67;;
49223;SDS011;35050;51.316;5.994;2023-06-10T13:00:29;3.10;;;2.58;;
49223;SDS011;35050;51.316;5.994;2023-06-10T13:02:59;2.90;;;2.70;;
49223;SDS011;35050;51.316;5.994;2023-06-10T13:05:26;2.97;;;2.78;;
49223;SDS011;35050;51.316;5.994;2023-06-10T13:07:53;6.45;;;3.15;;
49223;SDS011;35050;51.316;5.994;2023-06-10T13:10:20;3.70;;;3.25;;
49223;SDS011;35050;51.316;5.994;2023-06-10T13:12:46;3.22;;;2.92;;
49223;SDS011;35050;51.316;5.994;2023-06-10T13:15:12;3.15;;;2.80;;
49223;SDS011;35050;51.316;5.994;2023-06-10T13:17:39;3.00;;;2.65;;
49223;SDS011;35050;51.316;5.994;2023-06-10T13:20:05;3.22;;;2.92;;
49223;SDS011;35050;51.316;5.994;2023-06-10T13:22:33;2.85;;;2.65;;
49223;SDS011;35050;51.316;5.994;2023-06-10T13:25:00;4.07;;;2.88;;
49223;SDS011;35050;51.316;5.994;2023-06-10T13:27:30;3.30;;;3.00;;
49223;SDS011;35050;51.316;5.994;2023-06-10T13:29:55;3.95;;;3.30;;
49223;SDS011;35050;51.316;5.994;2023-06-10T13:32:21;3.28;;;2.97;;
49223;SDS011;35050;51.316;5.994;2023-06-10T13:34:47;3.33;;;3.03;;
49223;SDS011;35050;51.316;5.994;2023-06-10T13:37:14;2.92;;;2.70;;
49223;SDS011;35050;51.316;5.994;2023-06-10T13:39:43;2.88;;;2.67;;
49223;SDS011;35050;51.316;5.994;2023-06-10T13:42:09;3.30;;;3.00;;
49223;SDS011;35050;51.316;5.994;2023-06-10T13:44:35;3.40;;;3.10;;
49223;SDS011;35050;51.316;5.994;2023-06-10T13:47:04;3.38;;;2.90;;
49223;SDS011;35050;51.316;5.994;2023-06-10T13:49:30;3.40;;;3.10;;
49223;SDS011;35050;51.316;5.994;2023-06-10T13:51:57;5.82;;;2.90;;
49223;SDS011;35050;51.316;5.994;2023-06-10T13:54:22;3.20;;;2.90;;
49223;SDS011;35050;51.316;5.994;2023-06-10T13:56:48;3.92;;;2.60;;
49223;SDS011;35050;51.316;5.994;2023-06-10T13:59:14;3.25;;;2.90;;
49223;SDS011;35050;51.316;5.994;2023-06-10T14:01:40;3.25;;;2.95;;
49223;SDS011;35050;51.316;5.994;2023-06-10T14:04:06;3.78;;;2.80;;
49223;SDS011;35050;51.316;5.994;2023-06-10T14:06:32;3.03;;;2.78;;
49223;SDS011;35050;51.316;5.994;2023-06-10T14:08:58;2.95;;;2.72;;
49223;SDS011;35050;51.316;5.994;2023-06-10T14:11:25;3.55;;;3.00;;
49223;SDS011;35050;51.316;5.994;2023-06-10T14:13:50;3.30;;;3.00;;
49223;SDS011;35050;51.316;5.994;2023-06-10T14:16:16;3.15;;;2.95;;
49223;SDS011;35050;51.316;5.994;2023-06-10T14:18:42;3.17;;;2.85;;
49223;SDS011;35050;51.316;5.994;2023-06-10T14:21:08;3.00;;;2.80;;
49223;SDS011;35050;51.316;5.994;2023-06-10T14:23:33;3.03;;;2.75;;
49223;SDS011;35050;51.316;5.994;2023-06-10T14:25:59;2.72;;;2.53;;
49223;SDS011;35050;51.316;5.994;2023-06-10T14:28:26;2.72;;;2.50;;
49223;SDS011;35050;51.316;5.994;2023-06-10T14:30:53;3.40;;;3.10;;
49223;SDS011;35050;51.316;5.994;2023-06-10T14:33:19;4.68;;;2.92;;
49223;SDS011;35050;51.316;5.994;2023-06-10T14:35:45;3.33;;;2.70;;
49223;SDS011;35050;51.316;5.994;2023-06-10T14:38:11;2.97;;;2.67;;
49223;SDS011;35050;51.316;5.994;2023-06-10T14:40:36;2.70;;;2.50;;
49223;SDS011;35050;51.316;5.994;2023-06-10T14:43:02;2.90;;;2.70;;
49223;SDS011;35050;51.316;5.994;2023-06-10T14:45:34;2.70;;;2.50;;
49223;SDS011;35050;51.316;5.994;2023-06-10T14:48:04;2.50;;;2.30;;
49223;SDS011;35050;51.316;5.994;2023-06-10T14:50:30;3.15;;;2.60;;
49223;SDS011;35050;51.316;5.994;2023-06-10T14:52:57;3.40;;;2.92;;
49223;SDS011;35050;51.316;5.994;2023-06-10T14:55:23;2.67;;;2.35;;
49223;SDS011;35050;51.316;5.994;2023-06-10T14:57:48;3.40;;;2.78;;
49223;SDS011;35050;51.316;5.994;2023-06-10T15:00:15;3.13;;;2.80;;
49223;SDS011;35050;51.316;5.994;2023-06-10T15:02:44;3.35;;;2.67;;
49223;SDS011;35050;51.316;5.994;2023-06-10T15:05:12;2.80;;;2.60;;
49223;SDS011;35050;51.316;5.994;2023-06-10T15:07:42;2.60;;;2.40;;
49223;SDS011;35050;51.316;5.994;2023-06-10T15:10:08;4.97;;;2.53;;
49223;SDS011;35050;51.316;5.994;2023-06-10T15:12:34;2.55;;;2.35;;
49223;SDS011;35050;51.316;5.994;2023-06-10T15:15:00;4.78;;;2.53;;
49223;SDS011;35050;51.316;5.994;2023-06-10T15:17:27;2.88;;;2.67;;